createdAt,value
2023-04-18T00:00:19.628Z,54.65
2023-04-18T00:02:47.902Z,55.47
2023-04-18T00:05:18.140Z,55.75
2023-04-18T00:07:46.032Z,56.23
2023-04-18T00:10:13.720Z,56.40
2023-04-18T00:12:41.237Z,57.01
2023-04-18T00:15:12.230Z,58.18
2023-04-18T00:17:39.933Z,57.59
2023-04-18T00:20:10.531Z,58.25
2023-04-18T00:22:42.251Z,58.53
2023-04-18T00:25:10.954Z,58.02
2023-04-18T00:27:39.504Z,57.99
2023-04-18T00:30:09.666Z,58.60
2023-04-18T00:32:38.890Z,58.67
2023-04-18T00:35:07.533Z,59.92
2023-04-18T00:37:35.051Z,59.66
2023-04-18T00:40:02.556Z,60.17
2023-04-18T00:42:30.035Z,60.67
2023-04-18T00:44:57.500Z,60.50
2023-04-18T00:47:25.113Z,60.64
2023-04-18T00:49:54.327Z,60.01
2023-04-18T00:52:22.332Z,60.00
2023-04-18T00:54:50.061Z,60.33
2023-04-18T00:57:17.688Z,60.13
2023-04-18T00:59:47.173Z,60.74
2023-04-18T01:02:14.654Z,60.65
2023-04-18T01:04:43.622Z,59.47
2023-04-18T01:07:13.001Z,60.73
2023-04-18T01:09:41.334Z,60.60
2023-04-18T01:12:08.922Z,60.10
2023-04-18T01:14:36.433Z,60.30
2023-04-18T01:17:03.870Z,60.35
2023-04-18T01:19:31.699Z,61.15
2023-04-18T01:21:59.152Z,60.66
2023-04-18T01:24:29.706Z,60.07
2023-04-18T01:26:57.317Z,61.18
2023-04-18T01:29:24.829Z,61.01
2023-04-18T01:31:52.333Z,61.04
2023-04-18T01:34:19.842Z,61.71
2023-04-18T01:36:47.632Z,62.10
2023-04-18T01:39:15.487Z,61.86
2023-04-18T01:41:44.346Z,62.67
2023-04-18T01:44:12.102Z,63.01
2023-04-18T01:46:40.693Z,62.69
2023-04-18T01:49:09.235Z,62.68
2023-04-18T01:51:38.706Z,63.28
2023-04-18T01:54:06.374Z,62.17
2023-04-18T01:56:33.861Z,63.25
2023-04-18T01:59:02.704Z,63.34
2023-04-18T02:01:30.357Z,63.37
2023-04-18T02:03:57.945Z,63.80
2023-04-18T02:06:26.055Z,63.69
2023-04-18T02:08:53.526Z,63.80
2023-04-18T02:11:21.007Z,63.44
2023-04-18T02:13:48.646Z,63.23
2023-04-18T02:16:17.494Z,64.20
2023-04-18T02:18:45.331Z,63.82
2023-04-18T02:21:12.781Z,64.89
2023-04-18T02:23:40.355Z,64.29
2023-04-18T02:26:07.848Z,64.16
2023-04-18T02:28:38.768Z,63.99
2023-04-18T02:31:07.169Z,63.60
2023-04-18T02:33:35.995Z,63.04
2023-04-18T02:36:03.502Z,63.48
2023-04-18T02:38:31.721Z,63.79
2023-04-18T02:40:59.211Z,63.83
2023-04-18T02:43:26.658Z,63.65
2023-04-18T02:45:54.162Z,63.71
2023-04-18T02:48:21.701Z,63.02
2023-04-18T02:50:50.577Z,64.01
2023-04-18T02:53:18.070Z,63.50
2023-04-18T02:55:45.558Z,63.27
2023-04-18T02:58:13.061Z,63.69
2023-04-18T03:00:40.589Z,62.74
2023-04-18T03:03:08.077Z,64.81
2023-04-18T03:05:35.589Z,63.63
2023-04-18T03:08:04.407Z,63.29
2023-04-18T03:10:32.094Z,64.46
2023-04-18T03:12:59.558Z,64.18
2023-04-18T03:15:27.011Z,64.73
2023-04-18T03:17:54.628Z,64.35
2023-04-18T03:20:22.377Z,62.60
2023-04-18T03:22:49.887Z,62.93
2023-04-18T03:25:18.875Z,62.88
2023-04-18T03:27:46.375Z,62.93
2023-04-18T03:30:14.101Z,63.19
2023-04-18T03:32:41.967Z,63.48
2023-04-18T03:35:10.991Z,63.12
2023-04-18T03:37:38.436Z,62.62
2023-04-18T03:40:06.918Z,62.11
2023-04-18T03:42:36.205Z,62.74
2023-04-18T03:45:04.253Z,62.53
2023-04-18T03:47:32.380Z,62.48
2023-04-18T03:49:59.889Z,63.19
2023-04-18T03:52:29.656Z,62.98
2023-04-18T03:54:57.364Z,62.44
2023-04-18T03:57:24.822Z,63.00
2023-04-18T03:59:53.643Z,63.70
2023-04-18T04:02:21.251Z,62.74
2023-04-18T04:04:49.023Z,63.26
2023-04-18T04:07:16.722Z,63.21
2023-04-18T04:09:44.177Z,63.80
2023-04-18T04:12:11.664Z,63.36
2023-04-18T04:14:39.121Z,63.17
2023-04-18T04:17:08.053Z,63.10
2023-04-18T04:19:35.602Z,63.27
2023-04-18T04:22:03.070Z,63.56
2023-04-18T04:24:30.618Z,64.27
2023-04-18T04:26:58.805Z,62.87
2023-04-18T04:29:26.743Z,63.17
2023-04-18T04:31:54.249Z,63.26
2023-04-18T04:34:23.184Z,63.14
2023-04-18T04:36:51.011Z,63.20
2023-04-18T04:39:18.635Z,63.01
2023-04-18T04:41:47.073Z,62.82
2023-04-18T04:44:17.642Z,63.33
2023-04-18T04:46:45.408Z,63.50
2023-04-18T04:49:13.071Z,63.35
2023-04-18T04:51:41.911Z,63.72
2023-04-18T04:54:09.362Z,63.20
2023-04-18T04:56:36.877Z,63.80
2023-04-18T04:59:04.418Z,63.42
2023-04-18T05:01:31.940Z,63.85
2023-04-18T05:03:59.511Z,63.30
2023-04-18T05:06:27.477Z,63.31
2023-04-18T05:08:57.511Z,63.02
2023-04-18T05:11:25.093Z,63.64
2023-04-18T05:13:52.557Z,63.42
2023-04-18T05:16:20.105Z,62.73
2023-04-18T05:18:47.813Z,62.59
2023-04-18T05:21:15.296Z,62.57
2023-04-18T05:23:42.750Z,62.53
2023-04-18T05:26:11.594Z,61.69
2023-04-18T05:28:39.197Z,62.55
2023-04-18T05:31:06.660Z,62.76
2023-04-18T05:33:34.216Z,63.18
2023-04-18T05:36:01.685Z,62.67
2023-04-18T05:38:29.129Z,62.99
2023-04-18T05:40:57.023Z,63.01
2023-04-18T05:43:25.794Z,63.03
2023-04-18T05:45:54.274Z,63.03
2023-04-18T05:48:24.989Z,63.54
2023-04-18T05:50:52.450Z,63.16
2023-04-18T05:53:19.886Z,63.56
2023-04-18T05:55:48.738Z,63.49
2023-04-18T05:58:16.405Z,63.09
2023-04-18T06:00:45.251Z,64.07
2023-04-18T06:03:12.826Z,64.06
2023-04-18T06:05:40.962Z,64.68
2023-04-18T06:08:08.475Z,63.29
2023-04-18T06:10:38.885Z,63.45
2023-04-18T06:13:06.816Z,63.19
2023-04-18T06:15:35.578Z,63.06
2023-04-18T06:18:04.451Z,63.06
2023-04-18T06:20:31.921Z,63.21
2023-04-18T06:22:59.347Z,63.38
2023-04-18T06:25:26.784Z,63.00
2023-04-18T06:27:54.324Z,62.86
2023-04-18T06:30:22.242Z,62.55
2023-04-18T06:32:49.925Z,62.51
2023-04-18T06:35:18.916Z,63.04
2023-04-18T06:37:46.681Z,64.13
2023-04-18T06:40:14.553Z,63.56
2023-04-18T06:42:43.201Z,63.98
2023-04-18T06:45:11.973Z,63.31
2023-04-18T06:47:40.108Z,63.85
2023-04-18T06:50:10.262Z,63.74
2023-04-18T06:52:44.019Z,62.60
2023-04-18T06:55:12.394Z,64.28
2023-04-18T06:57:40.648Z,63.70
2023-04-18T07:00:10.031Z,63.35
2023-04-18T07:02:39.365Z,64.14
2023-04-18T07:05:07.868Z,63.94
2023-04-18T07:07:35.868Z,63.12
2023-04-18T07:10:06.638Z,62.79
2023-04-18T07:12:34.674Z,62.94
2023-04-18T07:15:03.311Z,63.47
2023-04-18T07:17:30.847Z,64.04
2023-04-18T07:19:59.183Z,64.79
2023-04-18T07:22:26.815Z,63.74
2023-04-18T07:24:54.288Z,64.06
2023-04-18T07:27:23.103Z,63.90
2023-04-18T07:29:50.573Z,63.98
2023-04-18T07:32:18.052Z,63.93
2023-04-18T07:34:45.751Z,64.51
2023-04-18T07:37:14.884Z,65.15
2023-04-18T07:39:42.582Z,63.60
2023-04-18T07:42:11.159Z,63.03
2023-04-18T07:44:40.207Z,62.64
2023-04-18T07:47:09.831Z,63.27
2023-04-18T07:49:37.782Z,63.39
2023-04-18T07:52:05.958Z,63.19
2023-04-18T07:54:33.406Z,63.02
2023-04-18T07:57:01.003Z,63.01
2023-04-18T07:59:28.743Z,62.62
2023-04-18T08:01:57.583Z,62.14
2023-04-18T08:04:27.632Z,62.08
2023-04-18T08:06:56.608Z,62.51
2023-04-18T08:09:24.053Z,62.89
2023-04-18T08:11:51.488Z,62.65
2023-04-18T08:14:18.921Z,63.19
2023-04-18T08:16:46.436Z,63.35
2023-04-18T08:19:15.705Z,62.89
2023-04-18T08:21:43.375Z,62.92
2023-04-18T08:24:10.788Z,63.20
2023-04-18T08:26:38.264Z,62.51
2023-04-18T08:29:06.221Z,62.93
2023-04-18T08:31:33.750Z,63.65
2023-04-18T08:34:02.539Z,63.03
2023-04-18T08:36:32.524Z,62.71
2023-04-18T08:38:59.953Z,63.48
2023-04-18T08:41:28.826Z,64.60
2023-04-18T08:43:57.211Z,64.07
2023-04-18T08:46:24.858Z,63.39
2023-04-18T08:48:52.486Z,63.41
2023-04-18T08:51:19.921Z,62.53
2023-04-18T08:53:48.919Z,62.57
2023-04-18T08:56:16.384Z,63.34
2023-04-18T08:58:45.087Z,63.46
2023-04-18T09:01:13.446Z,64.38
2023-04-18T09:03:43.081Z,63.92
2023-04-18T09:06:13.570Z,63.73
2023-04-18T09:08:42.447Z,63.56
2023-04-18T09:11:25.848Z,64.22
2023-04-18T09:13:55.890Z,64.14
2023-04-18T09:16:24.048Z,65.20
2023-04-18T09:19:11.518Z,64.70
2023-04-18T09:21:44.257Z,65.53
2023-04-18T09:24:20.921Z,65.22
2023-04-18T09:26:51.199Z,64.36
2023-04-18T09:29:22.204Z,63.86
2023-04-18T09:31:57.565Z,63.96
2023-04-18T09:34:26.250Z,65.09
2023-04-18T09:37:17.638Z,64.64
2023-04-18T09:39:45.850Z,65.50
2023-04-18T09:42:14.756Z,65.07
2023-04-18T09:45:00.725Z,64.54
2023-04-18T09:47:28.826Z,66.38
2023-04-18T09:49:56.550Z,65.19
2023-04-18T09:52:25.696Z,65.00
2023-04-18T09:54:59.134Z,63.84
2023-04-18T09:57:30.191Z,64.33
2023-04-18T10:00:03.052Z,63.27
2023-04-18T10:02:39.143Z,62.92
2023-04-18T10:05:08.966Z,64.17
2023-04-18T10:07:36.746Z,65.02
2023-04-18T10:10:04.433Z,63.44
2023-04-18T10:12:34.108Z,63.10
2023-04-18T10:15:02.012Z,62.44
2023-04-18T10:17:29.889Z,61.86
2023-04-18T10:20:10.020Z,61.86
2023-04-18T10:22:37.479Z,61.93
2023-04-18T10:25:06.135Z,61.47
2023-04-18T10:28:01.100Z,60.51
2023-04-18T10:30:54.820Z,60.65
2023-04-18T10:33:41.978Z,59.30
2023-04-18T10:36:20.503Z,58.40
2023-04-18T10:38:50.232Z,57.54
2023-04-18T10:41:21.154Z,58.09
2023-04-18T10:44:18.022Z,58.19
2023-04-18T10:47:20.564Z,58.62
2023-04-18T10:49:57.153Z,57.51
2023-04-18T10:52:24.708Z,57.12
2023-04-18T10:54:58.394Z,56.14
2023-04-18T10:57:37.893Z,56.31
2023-04-18T11:00:11.104Z,55.64
2023-04-18T11:02:39.210Z,55.48
2023-04-18T11:05:08.866Z,55.25
2023-04-18T11:07:37.437Z,56.30
2023-04-18T11:10:06.154Z,56.77
2023-04-18T11:12:36.442Z,56.68
2023-04-18T11:15:10.541Z,56.09
2023-04-18T11:17:40.679Z,55.33
2023-04-18T11:20:11.028Z,55.65
2023-04-18T11:22:46.237Z,54.96
2023-04-18T11:25:14.136Z,54.04
2023-04-18T11:27:43.632Z,54.11
2023-04-18T11:30:12.102Z,54.17
2023-04-18T11:32:41.536Z,55.95
2023-04-18T11:35:10.697Z,55.35
2023-04-18T11:37:39.131Z,55.72
2023-04-18T11:40:09.356Z,56.50
2023-04-18T11:42:38.818Z,56.78
2023-04-18T11:45:11.082Z,56.34
2023-04-18T11:47:38.580Z,56.10
2023-04-18T11:50:09.420Z,55.70
2023-04-18T11:52:38.067Z,55.26
2023-04-18T11:55:14.022Z,54.18
2023-04-18T11:57:42.148Z,54.13
2023-04-18T12:00:12.314Z,53.52
2023-04-18T12:02:42.433Z,53.47
2023-04-18T12:05:15.041Z,53.04
2023-04-18T12:07:44.997Z,53.03
2023-04-18T12:10:25.298Z,53.19
2023-04-18T12:12:54.463Z,52.71
2023-04-18T12:15:24.024Z,52.30
2023-04-18T12:17:52.357Z,51.04
2023-04-18T12:20:24.690Z,51.06
2023-04-18T12:22:54.846Z,51.42
2023-04-18T12:25:27.063Z,50.61
2023-04-18T12:27:57.830Z,50.41
2023-04-18T12:30:27.658Z,50.12
2023-04-18T12:32:56.734Z,50.32
2023-04-18T12:35:26.278Z,49.77
2023-04-18T12:37:55.457Z,48.81
2023-04-18T12:40:23.798Z,49.32
2023-04-18T12:42:51.906Z,49.69
2023-04-18T12:45:21.632Z,49.40
2023-04-18T12:47:50.789Z,49.00
2023-04-18T12:50:19.931Z,48.33
2023-04-18T12:52:49.645Z,48.77
2023-04-18T12:55:17.129Z,49.11
2023-04-18T12:57:45.017Z,48.38
2023-04-18T13:00:13.963Z,48.49
2023-04-18T13:02:43.576Z,48.60
2023-04-18T13:05:13.007Z,48.91
2023-04-18T13:07:42.471Z,49.27
2023-04-18T13:10:13.155Z,48.21
2023-04-18T13:12:41.479Z,49.45
2023-04-18T13:15:09.905Z,49.21
2023-04-18T13:17:38.082Z,48.27
2023-04-18T13:20:06.920Z,48.98
2023-04-18T13:22:34.723Z,48.85
2023-04-18T13:25:02.192Z,47.63
2023-04-18T13:27:31.068Z,46.95
2023-04-18T13:29:58.552Z,48.65
2023-04-18T13:32:26.938Z,48.35
2023-04-18T13:34:56.020Z,49.34
2023-04-18T13:37:23.709Z,48.65
2023-04-18T13:39:51.306Z,48.44
2023-04-18T13:42:19.319Z,48.08
2023-04-18T13:44:48.477Z,47.92
2023-04-18T13:47:16.172Z,46.88
2023-04-18T13:49:43.743Z,46.88
2023-04-18T13:52:11.227Z,46.99
2023-04-18T13:54:38.695Z,47.16
2023-04-18T13:57:11.247Z,47.35
2023-04-18T13:59:39.993Z,47.28
2023-04-18T14:02:10.479Z,47.05
2023-04-18T14:04:38.316Z,47.37
2023-04-18T14:07:07.979Z,47.19
2023-04-18T14:09:35.537Z,46.27
2023-04-18T14:12:03.081Z,45.82
2023-04-18T14:14:30.717Z,45.70
2023-04-18T14:16:58.274Z,46.40
2023-04-18T14:19:27.796Z,46.99
2023-04-18T14:21:55.389Z,47.91
2023-04-18T14:24:22.975Z,47.80
2023-04-18T14:26:50.441Z,46.83
2023-04-18T14:29:17.949Z,46.87
2023-04-18T14:31:46.097Z,46.40
2023-04-18T14:34:13.688Z,46.49
2023-04-18T14:36:42.488Z,45.20
2023-04-18T14:39:10.608Z,45.05
2023-04-18T14:41:38.381Z,45.38
2023-04-18T14:44:06.410Z,45.88
2023-04-18T14:46:33.927Z,45.61
2023-04-18T14:49:01.485Z,45.82
2023-04-18T14:51:28.977Z,45.57
2023-04-18T14:53:58.828Z,45.35
2023-04-18T14:56:26.438Z,46.23
2023-04-18T14:58:53.870Z,47.00
2023-04-18T15:01:21.416Z,46.97
2023-04-18T15:03:51.315Z,47.58
2023-04-18T15:06:18.903Z,47.80
2023-04-18T15:08:46.348Z,47.77
2023-04-18T15:11:15.160Z,46.70
2023-04-18T15:13:42.673Z,47.81
2023-04-18T15:16:10.176Z,47.50
2023-04-18T15:18:37.858Z,47.48
2023-04-18T15:21:05.384Z,47.87
2023-04-18T15:23:34.016Z,48.33
2023-04-18T15:26:01.702Z,47.71
2023-04-18T15:28:30.521Z,47.56
2023-04-18T15:30:58.018Z,48.42
2023-04-18T15:33:25.877Z,48.23
2023-04-18T15:35:53.650Z,48.71
2023-04-18T15:38:21.098Z,49.23
2023-04-18T15:40:48.637Z,49.20
2023-04-18T15:43:17.130Z,49.04
2023-04-18T15:45:46.790Z,48.63
2023-04-18T15:48:14.385Z,48.12
2023-04-18T15:50:42.033Z,47.59
2023-04-18T15:53:09.864Z,48.82
2023-04-18T15:55:37.369Z,48.34
2023-04-18T15:58:05.007Z,48.67
2023-04-18T16:00:32.646Z,49.57
2023-04-18T16:03:01.631Z,49.31
2023-04-18T16:05:29.277Z,49.48
2023-04-18T16:07:57.984Z,49.69
2023-04-18T16:10:25.483Z,49.29
2023-04-18T16:12:53.510Z,48.49
2023-04-18T16:15:21.620Z,49.15
2023-04-18T16:17:49.119Z,49.27
2023-04-18T16:20:18.992Z,49.15
2023-04-18T16:22:46.859Z,49.25
2023-04-18T16:25:14.540Z,50.42
2023-04-18T16:27:42.469Z,49.95
2023-04-18T16:30:11.026Z,50.36
2023-04-18T16:32:38.904Z,49.28
2023-04-18T16:35:07.723Z,49.97
2023-04-18T16:37:36.691Z,50.29
2023-04-18T16:40:05.504Z,50.96
2023-04-18T16:42:33.192Z,50.67
2023-04-18T16:45:02.632Z,50.42
2023-04-18T16:47:30.648Z,50.53
2023-04-18T16:49:58.166Z,50.51
2023-04-18T16:52:26.011Z,51.15
2023-04-18T16:54:54.899Z,50.50
2023-04-18T16:57:22.487Z,51.48
2023-04-18T16:59:49.964Z,51.48
2023-04-18T17:02:17.548Z,51.41
2023-04-18T17:04:45.240Z,51.85
2023-04-18T17:07:13.126Z,51.54
2023-04-18T17:09:40.610Z,51.24
2023-04-18T17:12:09.444Z,51.52
2023-04-18T17:14:37.043Z,51.72
2023-04-18T17:17:04.815Z,52.23
2023-04-18T17:19:32.285Z,52.88
2023-04-18T17:22:00.194Z,52.47
2023-04-18T17:24:27.807Z,51.92
2023-04-18T17:26:57.558Z,52.11
2023-04-18T17:29:26.695Z,52.08
2023-04-18T17:31:54.204Z,51.76
2023-04-18T17:34:21.802Z,52.43
2023-04-18T17:36:49.258Z,52.65
2023-04-18T17:39:19.471Z,53.70
2023-04-18T17:41:47.167Z,53.66
2023-04-18T17:44:14.637Z,53.18
2023-04-18T17:46:43.459Z,53.32
2023-04-18T17:49:11.271Z,53.45
2023-04-18T17:51:38.811Z,54.68
2023-04-18T17:54:07.964Z,54.69
2023-04-18T17:56:35.622Z,54.03
2023-04-18T17:59:03.128Z,53.97
2023-04-18T18:01:31.328Z,54.35
2023-04-18T18:04:00.438Z,54.85
2023-04-18T18:06:28.082Z,54.86
2023-04-18T18:08:55.859Z,54.50
2023-04-18T18:11:23.658Z,55.41
2023-04-18T18:13:54.425Z,54.63
2023-04-18T18:16:22.669Z,55.62
2023-04-18T18:18:50.787Z,55.20
2023-04-18T18:21:19.746Z,55.14
2023-04-18T18:23:47.236Z,55.20
2023-04-18T18:26:14.733Z,56.23
2023-04-18T18:28:42.175Z,55.29
2023-04-18T18:31:09.696Z,55.67
2023-04-18T18:33:37.173Z,55.81
2023-04-18T18:36:05.400Z,56.08
2023-04-18T18:38:34.214Z,56.12
2023-04-18T18:41:03.751Z,56.32
2023-04-18T18:43:31.506Z,56.58
2023-04-18T18:45:59.095Z,56.61
2023-04-18T18:48:28.136Z,56.77
2023-04-18T18:50:56.380Z,56.70
2023-04-18T18:53:23.870Z,56.88
2023-04-18T18:55:52.714Z,57.03
2023-04-18T18:58:20.599Z,56.14
2023-04-18T19:00:48.126Z,56.70
2023-04-18T19:03:18.323Z,56.78
2023-04-18T19:05:47.069Z,57.68
2023-04-18T19:08:14.704Z,58.09
2023-04-18T19:10:43.074Z,57.48
2023-04-18T19:13:11.875Z,56.87
2023-04-18T19:15:39.369Z,57.61
2023-04-18T19:18:07.028Z,57.54
2023-04-18T19:20:34.821Z,57.89
2023-04-18T19:23:02.362Z,57.44
2023-04-18T19:25:29.824Z,57.74
2023-04-18T19:27:57.315Z,58.04
2023-04-18T19:30:26.217Z,57.52
2023-04-18T19:32:53.722Z,57.58
2023-04-18T19:35:21.492Z,57.18
2023-04-18T19:37:48.951Z,57.82
2023-04-18T19:40:16.585Z,57.90
2023-04-18T19:42:44.096Z,57.77
2023-04-18T19:45:14.897Z,57.80
2023-04-18T19:47:44.942Z,58.49
2023-04-18T19:50:12.533Z,57.88
2023-04-18T19:52:40.505Z,57.33
2023-04-18T19:55:08.882Z,57.36
2023-04-18T19:57:39.835Z,59.29
2023-04-18T20:00:08.828Z,58.51
2023-04-18T20:02:36.440Z,58.07
2023-04-18T20:05:07.311Z,58.58
2023-04-18T20:07:35.225Z,58.72
2023-04-18T20:10:04.211Z,58.79
2023-04-18T20:12:31.848Z,58.78
2023-04-18T20:14:59.352Z,59.23
2023-04-18T20:17:27.514Z,59.79
2023-04-18T20:19:56.952Z,58.85
2023-04-18T20:22:26.708Z,59.07
2023-04-18T20:24:57.014Z,60.50
2023-04-18T20:27:24.668Z,59.46
2023-04-18T20:29:52.495Z,59.01
2023-04-18T20:32:19.929Z,58.70
2023-04-18T20:34:47.525Z,58.76
2023-04-18T20:37:19.852Z,58.11
2023-04-18T20:39:48.720Z,58.29
2023-04-18T20:42:16.236Z,58.10
2023-04-18T20:44:44.598Z,59.24
2023-04-18T20:47:13.892Z,58.94
2023-04-18T20:49:42.832Z,59.14
2023-04-18T20:52:10.525Z,58.24
2023-04-18T20:54:38.031Z,58.66
2023-04-18T20:57:06.775Z,58.31
2023-04-18T20:59:34.303Z,58.22
2023-04-18T21:02:01.931Z,59.30
2023-04-18T21:04:30.164Z,59.05
2023-04-18T21:06:57.802Z,59.04
2023-04-18T21:09:25.270Z,58.39
2023-04-18T21:11:52.702Z,58.55
2023-04-18T21:14:21.465Z,58.42
2023-04-18T21:16:49.249Z,58.46
2023-04-18T21:19:16.703Z,57.77
2023-04-18T21:21:44.166Z,58.77
2023-04-18T21:24:11.665Z,59.41
2023-04-18T21:26:39.122Z,59.25
2023-04-18T21:29:06.570Z,58.93
2023-04-18T21:31:36.220Z,58.72
2023-04-18T21:34:05.135Z,58.57
2023-04-18T21:36:33.474Z,58.36
2023-04-18T21:39:01.704Z,59.61
2023-04-18T21:41:29.318Z,59.54
2023-04-18T21:43:56.744Z,60.07
2023-04-18T21:46:24.675Z,59.67
2023-04-18T21:48:53.573Z,59.74
2023-04-18T21:51:21.046Z,59.70
2023-04-18T21:53:48.474Z,59.37
2023-04-18T21:56:17.696Z,58.87
2023-04-18T21:58:45.166Z,58.97
2023-04-18T22:01:12.912Z,59.81
2023-04-18T22:03:40.743Z,59.30
2023-04-18T22:06:09.754Z,60.41
2023-04-18T22:08:37.348Z,59.13
2023-04-18T22:11:05.526Z,58.86
2023-04-18T22:13:33.637Z,59.75
2023-04-18T22:16:03.564Z,59.14
2023-04-18T22:18:33.548Z,58.82
2023-04-18T22:21:01.269Z,58.95
2023-04-18T22:23:30.752Z,60.53
2023-04-18T22:25:58.192Z,59.71
2023-04-18T22:28:27.690Z,59.51
2023-04-18T22:30:55.237Z,59.49
2023-04-18T22:33:22.718Z,59.38
2023-04-18T22:35:50.303Z,60.16
2023-04-18T22:38:17.768Z,61.38
2023-04-18T22:40:46.609Z,61.35
2023-04-18T22:43:14.177Z,60.79
2023-04-18T22:45:41.598Z,61.20
2023-04-18T22:48:12.119Z,60.98
2023-04-18T22:50:42.453Z,60.66
2023-04-18T22:53:10.407Z,59.56
2023-04-18T22:55:40.253Z,60.80
2023-04-18T22:58:09.923Z,60.47
2023-04-18T23:00:37.662Z,60.36
2023-04-18T23:03:05.504Z,60.85
2023-04-18T23:05:34.148Z,62.06
2023-04-18T23:08:01.609Z,62.56
2023-04-18T23:10:29.393Z,61.00
2023-04-18T23:12:57.329Z,62.26
2023-04-18T23:15:26.884Z,62.39
2023-04-18T23:17:54.914Z,62.22
2023-04-18T23:20:23.770Z,61.78
2023-04-18T23:22:51.695Z,62.27
2023-04-18T23:25:20.164Z,62.50
2023-04-18T23:27:47.760Z,61.74
2023-04-18T23:30:15.361Z,63.33
2023-04-18T23:32:44.173Z,62.35
2023-04-18T23:35:12.097Z,62.31
2023-04-18T23:37:39.516Z,62.22
2023-04-18T23:40:08.986Z,62.65
2023-04-18T23:42:36.964Z,62.85
2023-04-18T23:45:05.739Z,62.83
2023-04-18T23:47:33.383Z,62.52
2023-04-18T23:50:02.288Z,63.07
2023-04-18T23:52:29.828Z,62.07
2023-04-18T23:55:00.347Z,62.70
2023-04-18T23:57:27.870Z,64.37
2023-04-18T23:59:55.355Z,63.72
